sensor_id;sensor_type;location;lat;lon;timestamp;P1;durP1;ratioP1;P2;durP2;ratioP2
15043;SDS011;7619;48.562;8.910;2023-03-14T00:00:09;0.87;;;0.43;;
15043;SDS011;7619;48.562;8.910;2023-03-14T00:02:41;0.47;;;0.40;;
15043;SDS011;7619;48.562;8.910;2023-03-14T00:05:09;0.50;;;0.50;;
15043;SDS011;7619;48.562;8.910;2023-03-14T00:07:39;0.30;;;0.30;;
15043;SDS011;7619;48.562;8.910;2023-03-14T00:10:08;0.77;;;0.47;;
15043;SDS011;7619;48.562;8.910;2023-03-14T00:12:39;0.30;;;0.30;;
15043;SDS011;7619;48.562;8.910;2023-03-14T00:15:10;0.30;;;0.30;;
15043;SDS011;7619;48.562;8.910;2023-03-14T00:17:40;0.40;;;0.40;;
15043;SDS011;7619;48.562;8.910;2023-03-14T00:20:12;2.07;;;0.50;;
15043;SDS011;7619;48.562;8.910;2023-03-14T00:22:41;0.70;;;0.47;;
15043;SDS011;7619;48.562;8.910;2023-03-14T00:25:10;0.40;;;0.40;;
15043;SDS011;7619;48.562;8.910;2023-03-14T00:27:39;0.40;;;0.40;;
15043;SDS011;7619;48.562;8.910;2023-03-14T00:30:08;0.40;;;0.40;;
15043;SDS011;7619;48.562;8.910;2023-03-14T00:32:36;0.37;;;0.33;;
15043;SDS011;7619;48.562;8.910;2023-03-14T00:35:06;0.33;;;0.33;;
15043;SDS011;7619;48.562;8.910;2023-03-14T00:37:33;0.47;;;0.47;;
15043;SDS011;7619;48.562;8.910;2023-03-14T00:40:03;0.30;;;0.30;;
15043;SDS011;7619;48.562;8.910;2023-03-14T00:42:33;0.40;;;0.40;;
15043;SDS011;7619;48.562;8.910;2023-03-14T00:45:01;1.43;;;0.40;;
15043;SDS011;7619;48.562;8.910;2023-03-14T00:47:30;1.27;;;0.40;;
15043;SDS011;7619;48.562;8.910;2023-03-14T00:49:59;0.60;;;0.20;;
15043;SDS011;7619;48.562;8.910;2023-03-14T00:52:27;0.77;;;0.33;;
15043;SDS011;7619;48.562;8.910;2023-03-14T00:54:56;0.43;;;0.33;;
15043;SDS011;7619;48.562;8.910;2023-03-14T00:57:25;1.50;;;0.53;;
15043;SDS011;7619;48.562;8.910;2023-03-14T00:59:53;0.30;;;0.30;;
15043;SDS011;7619;48.562;8.910;2023-03-14T01:02:21;0.30;;;0.30;;
15043;SDS011;7619;48.562;8.910;2023-03-14T01:04:49;0.60;;;0.60;;
15043;SDS011;7619;48.562;8.910;2023-03-14T01:07:17;0.40;;;0.40;;
15043;SDS011;7619;48.562;8.910;2023-03-14T01:09:45;1.53;;;0.80;;
15043;SDS011;7619;48.562;8.910;2023-03-14T01:12:13;0.47;;;0.47;;
15043;SDS011;7619;48.562;8.910;2023-03-14T01:14:42;0.40;;;0.40;;
15043;SDS011;7619;48.562;8.910;2023-03-14T01:17:10;0.30;;;0.30;;
15043;SDS011;7619;48.562;8.910;2023-03-14T01:19:38;0.93;;;0.63;;
15043;SDS011;7619;48.562;8.910;2023-03-14T01:22:06;0.20;;;0.20;;
15043;SDS011;7619;48.562;8.910;2023-03-14T01:24:34;0.20;;;0.20;;
15043;SDS011;7619;48.562;8.910;2023-03-14T01:27:02;0.33;;;0.33;;
15043;SDS011;7619;48.562;8.910;2023-03-14T01:29:30;0.70;;;0.23;;
15043;SDS011;7619;48.562;8.910;2023-03-14T01:31:58;0.27;;;0.23;;
15043;SDS011;7619;48.562;8.910;2023-03-14T01:34:26;0.50;;;0.30;;
15043;SDS011;7619;48.562;8.910;2023-03-14T01:36:54;0.33;;;0.30;;
15043;SDS011;7619;48.562;8.910;2023-03-14T01:39:22;0.77;;;0.30;;
15043;SDS011;7619;48.562;8.910;2023-03-14T01:41:50;1.40;;;0.23;;
15043;SDS011;7619;48.562;8.910;2023-03-14T01:44:18;0.50;;;0.20;;
15043;SDS011;7619;48.562;8.910;2023-03-14T01:46:46;1.00;;;0.60;;
15043;SDS011;7619;48.562;8.910;2023-03-14T01:49:21;0.17;;;0.17;;
15043;SDS011;7619;48.562;8.910;2023-03-14T01:51:51;0.50;;;0.50;;
15043;SDS011;7619;48.562;8.910;2023-03-14T01:54:21;1.07;;;0.20;;
15043;SDS011;7619;48.562;8.910;2023-03-14T01:56:52;0.63;;;0.50;;
15043;SDS011;7619;48.562;8.910;2023-03-14T01:59:20;0.30;;;0.30;;
15043;SDS011;7619;48.562;8.910;2023-03-14T02:01:48;0.23;;;0.23;;
15043;SDS011;7619;48.562;8.910;2023-03-14T02:04:18;0.20;;;0.20;;
15043;SDS011;7619;48.562;8.910;2023-03-14T02:06:51;0.10;;;0.10;;
15043;SDS011;7619;48.562;8.910;2023-03-14T02:09:22;0.73;;;0.30;;
15043;SDS011;7619;48.562;8.910;2023-03-14T02:11:51;0.83;;;0.10;;
15043;SDS011;7619;48.562;8.910;2023-03-14T02:14:24;4.00;;;0.20;;
15043;SDS011;7619;48.562;8.910;2023-03-14T02:16:52;2.87;;;0.30;;
15043;SDS011;7619;48.562;8.910;2023-03-14T02:19:20;0.30;;;0.23;;
15043;SDS011;7619;48.562;8.910;2023-03-14T02:21:54;0.37;;;0.30;;
15043;SDS011;7619;48.562;8.910;2023-03-14T02:24:34;0.23;;;0.20;;
15043;SDS011;7619;48.562;8.910;2023-03-14T02:27:09;1.40;;;0.30;;
15043;SDS011;7619;48.562;8.910;2023-03-14T02:29:41;0.20;;;0.20;;
15043;SDS011;7619;48.562;8.910;2023-03-14T02:32:13;0.30;;;0.30;;
15043;SDS011;7619;48.562;8.910;2023-03-14T02:34:47;0.20;;;0.20;;
15043;SDS011;7619;48.562;8.910;2023-03-14T02:37:19;0.17;;;0.17;;
15043;SDS011;7619;48.562;8.910;2023-03-14T02:39:48;0.23;;;0.20;;
15043;SDS011;7619;48.562;8.910;2023-03-14T02:42:17;2.10;;;0.27;;
15043;SDS011;7619;48.562;8.910;2023-03-14T02:44:53;0.27;;;0.27;;
15043;SDS011;7619;48.562;8.910;2023-03-14T02:47:25;2.37;;;0.60;;
15043;SDS011;7619;48.562;8.910;2023-03-14T02:49:52;0.63;;;0.33;;
15043;SDS011;7619;48.562;8.910;2023-03-14T02:52:21;0.37;;;0.37;;
15043;SDS011;7619;48.562;8.910;2023-03-14T02:54:49;1.50;;;0.60;;
15043;SDS011;7619;48.562;8.910;2023-03-14T02:57:17;0.63;;;0.43;;
15043;SDS011;7619;48.562;8.910;2023-03-14T02:59:45;1.20;;;0.73;;
15043;SDS011;7619;48.562;8.910;2023-03-14T03:02:13;0.47;;;0.30;;
15043;SDS011;7619;48.562;8.910;2023-03-14T03:04:41;1.13;;;0.60;;
15043;SDS011;7619;48.562;8.910;2023-03-14T03:07:09;0.73;;;0.53;;
15043;SDS011;7619;48.562;8.910;2023-03-14T03:09:37;0.30;;;0.30;;
15043;SDS011;7619;48.562;8.910;2023-03-14T03:12:06;0.73;;;0.57;;
15043;SDS011;7619;48.562;8.910;2023-03-14T03:14:34;0.43;;;0.30;;
15043;SDS011;7619;48.562;8.910;2023-03-14T03:17:01;2.47;;;0.67;;
15043;SDS011;7619;48.562;8.910;2023-03-14T03:19:31;1.67;;;0.43;;
15043;SDS011;7619;48.562;8.910;2023-03-14T03:21:59;1.60;;;0.47;;
15043;SDS011;7619;48.562;8.910;2023-03-14T03:24:27;2.17;;;0.43;;
15043;SDS011;7619;48.562;8.910;2023-03-14T03:26:55;0.70;;;0.40;;
15043;SDS011;7619;48.562;8.910;2023-03-14T03:29:23;1.43;;;0.67;;
15043;SDS011;7619;48.562;8.910;2023-03-14T03:31:52;1.90;;;0.90;;
15043;SDS011;7619;48.562;8.910;2023-03-14T03:34:19;3.13;;;0.70;;
15043;SDS011;7619;48.562;8.910;2023-03-14T03:36:48;0.40;;;0.40;;
15043;SDS011;7619;48.562;8.910;2023-03-14T03:39:17;1.67;;;0.40;;
15043;SDS011;7619;48.562;8.910;2023-03-14T03:41:46;2.20;;;0.30;;
15043;SDS011;7619;48.562;8.910;2023-03-14T03:44:14;2.00;;;0.70;;
15043;SDS011;7619;48.562;8.910;2023-03-14T03:46:42;0.77;;;0.70;;
15043;SDS011;7619;48.562;8.910;2023-03-14T03:49:10;3.93;;;0.60;;
15043;SDS011;7619;48.562;8.910;2023-03-14T03:51:38;0.50;;;0.50;;
15043;SDS011;7619;48.562;8.910;2023-03-14T03:54:06;1.20;;;0.60;;
15043;SDS011;7619;48.562;8.910;2023-03-14T03:56:36;1.70;;;0.50;;
15043;SDS011;7619;48.562;8.910;2023-03-14T03:59:04;3.57;;;0.83;;
15043;SDS011;7619;48.562;8.910;2023-03-14T04:01:32;2.17;;;0.43;;
15043;SDS011;7619;48.562;8.910;2023-03-14T04:04:00;1.40;;;0.67;;
15043;SDS011;7619;48.562;8.910;2023-03-14T04:06:27;3.03;;;0.93;;
15043;SDS011;7619;48.562;8.910;2023-03-14T04:08:57;2.27;;;0.57;;
15043;SDS011;7619;48.562;8.910;2023-03-14T04:11:25;1.30;;;0.50;;
15043;SDS011;7619;48.562;8.910;2023-03-14T04:13:54;1.37;;;0.50;;
15043;SDS011;7619;48.562;8.910;2023-03-14T04:16:23;0.70;;;0.50;;
15043;SDS011;7619;48.562;8.910;2023-03-14T04:18:51;2.57;;;0.73;;
15043;SDS011;7619;48.562;8.910;2023-03-14T04:21:20;0.80;;;0.50;;
15043;SDS011;7619;48.562;8.910;2023-03-14T04:23:48;1.33;;;0.70;;
15043;SDS011;7619;48.562;8.910;2023-03-14T04:26:16;1.00;;;0.43;;
15043;SDS011;7619;48.562;8.910;2023-03-14T04:28:44;2.30;;;0.70;;
15043;SDS011;7619;48.562;8.910;2023-03-14T04:31:15;1.50;;;0.53;;
15043;SDS011;7619;48.562;8.910;2023-03-14T04:33:42;1.37;;;0.57;;
15043;SDS011;7619;48.562;8.910;2023-03-14T04:36:11;3.97;;;0.60;;
15043;SDS011;7619;48.562;8.910;2023-03-14T04:38:39;2.40;;;0.70;;
15043;SDS011;7619;48.562;8.910;2023-03-14T04:41:07;0.70;;;0.43;;
15043;SDS011;7619;48.562;8.910;2023-03-14T04:43:35;1.10;;;0.63;;
15043;SDS011;7619;48.562;8.910;2023-03-14T04:46:05;1.53;;;0.50;;
15043;SDS011;7619;48.562;8.910;2023-03-14T04:48:33;0.80;;;0.40;;
15043;SDS011;7619;48.562;8.910;2023-03-14T04:51:01;1.50;;;0.50;;
15043;SDS011;7619;48.562;8.910;2023-03-14T04:53:30;2.87;;;0.60;;
15043;SDS011;7619;48.562;8.910;2023-03-14T04:56:00;4.27;;;1.37;;
15043;SDS011;7619;48.562;8.910;2023-03-14T04:58:31;0.50;;;0.50;;
15043;SDS011;7619;48.562;8.910;2023-03-14T05:01:01;1.90;;;0.50;;
15043;SDS011;7619;48.562;8.910;2023-03-14T05:03:31;1.57;;;0.70;;
15043;SDS011;7619;48.562;8.910;2023-03-14T05:06:02;0.67;;;0.50;;
15043;SDS011;7619;48.562;8.910;2023-03-14T05:08:31;1.90;;;0.53;;
15043;SDS011;7619;48.562;8.910;2023-03-14T05:11:01;0.73;;;0.60;;
15043;SDS011;7619;48.562;8.910;2023-03-14T05:13:29;4.93;;;0.73;;
15043;SDS011;7619;48.562;8.910;2023-03-14T05:16:03;2.47;;;0.63;;
15043;SDS011;7619;48.562;8.910;2023-03-14T05:18:34;2.33;;;0.50;;
15043;SDS011;7619;48.562;8.910;2023-03-14T05:21:04;0.50;;;0.50;;
15043;SDS011;7619;48.562;8.910;2023-03-14T05:23:32;3.70;;;0.77;;
15043;SDS011;7619;48.562;8.910;2023-03-14T05:26:01;4.40;;;0.97;;
15043;SDS011;7619;48.562;8.910;2023-03-14T05:28:29;1.03;;;0.43;;
15043;SDS011;7619;48.562;8.910;2023-03-14T05:30:57;1.73;;;0.50;;
15043;SDS011;7619;48.562;8.910;2023-03-14T05:33:26;0.40;;;0.40;;
15043;SDS011;7619;48.562;8.910;2023-03-14T05:35:54;1.80;;;0.67;;
15043;SDS011;7619;48.562;8.910;2023-03-14T05:38:22;0.77;;;0.50;;
15043;SDS011;7619;48.562;8.910;2023-03-14T05:40:52;0.60;;;0.60;;
15043;SDS011;7619;48.562;8.910;2023-03-14T05:43:20;1.87;;;0.50;;
15043;SDS011;7619;48.562;8.910;2023-03-14T05:45:48;0.90;;;0.37;;
15043;SDS011;7619;48.562;8.910;2023-03-14T05:48:16;1.13;;;0.50;;
15043;SDS011;7619;48.562;8.910;2023-03-14T05:50:45;1.03;;;0.57;;
15043;SDS011;7619;48.562;8.910;2023-03-14T05:53:13;2.30;;;0.60;;
15043;SDS011;7619;48.562;8.910;2023-03-14T05:55:40;0.90;;;0.70;;
15043;SDS011;7619;48.562;8.910;2023-03-14T05:58:10;1.93;;;0.73;;
15043;SDS011;7619;48.562;8.910;2023-03-14T06:00:38;1.37;;;0.60;;
15043;SDS011;7619;48.562;8.910;2023-03-14T06:03:06;0.67;;;0.67;;
15043;SDS011;7619;48.562;8.910;2023-03-14T06:05:33;0.73;;;0.60;;
15043;SDS011;7619;48.562;8.910;2023-03-14T06:08:03;1.67;;;0.50;;
15043;SDS011;7619;48.562;8.910;2023-03-14T06:10:32;2.00;;;0.60;;
15043;SDS011;7619;48.562;8.910;2023-03-14T06:13:04;0.30;;;0.30;;
15043;SDS011;7619;48.562;8.910;2023-03-14T06:15:32;0.60;;;0.60;;
15043;SDS011;7619;48.562;8.910;2023-03-14T06:18:02;0.30;;;0.30;;
15043;SDS011;7619;48.562;8.910;2023-03-14T06:20:30;0.60;;;0.60;;
15043;SDS011;7619;48.562;8.910;2023-03-14T06:22:59;0.30;;;0.30;;
15043;SDS011;7619;48.562;8.910;2023-03-14T06:25:28;3.73;;;0.60;;
15043;SDS011;7619;48.562;8.910;2023-03-14T06:27:56;0.57;;;0.50;;
15043;SDS011;7619;48.562;8.910;2023-03-14T06:30:25;0.60;;;0.37;;
15043;SDS011;7619;48.562;8.910;2023-03-14T06:32:53;0.63;;;0.57;;
15043;SDS011;7619;48.562;8.910;2023-03-14T06:35:22;1.27;;;0.60;;
15043;SDS011;7619;48.562;8.910;2023-03-14T06:37:50;0.83;;;0.70;;
15043;SDS011;7619;48.562;8.910;2023-03-14T06:40:19;2.00;;;1.17;;
15043;SDS011;7619;48.562;8.910;2023-03-14T06:42:47;1.90;;;0.60;;
15043;SDS011;7619;48.562;8.910;2023-03-14T06:45:16;0.27;;;0.27;;
15043;SDS011;7619;48.562;8.910;2023-03-14T06:47:45;0.30;;;0.30;;
15043;SDS011;7619;48.562;8.910;2023-03-14T06:50:14;1.40;;;0.40;;
15043;SDS011;7619;48.562;8.910;2023-03-14T06:52:43;0.90;;;0.50;;
15043;SDS011;7619;48.562;8.910;2023-03-14T06:55:13;0.30;;;0.30;;
15043;SDS011;7619;48.562;8.910;2023-03-14T06:57:43;1.83;;;0.93;;
15043;SDS011;7619;48.562;8.910;2023-03-14T07:00:12;3.60;;;0.47;;
15043;SDS011;7619;48.562;8.910;2023-03-14T07:02:42;1.63;;;0.20;;
15043;SDS011;7619;48.562;8.910;2023-03-14T07:05:11;1.50;;;0.60;;
15043;SDS011;7619;48.562;8.910;2023-03-14T07:07:39;0.57;;;0.40;;
15043;SDS011;7619;48.562;8.910;2023-03-14T07:10:08;0.67;;;0.50;;
15043;SDS011;7619;48.562;8.910;2023-03-14T07:12:36;1.17;;;0.27;;
15043;SDS011;7619;48.562;8.910;2023-03-14T07:15:06;0.73;;;0.60;;
15043;SDS011;7619;48.562;8.910;2023-03-14T07:17:33;0.80;;;0.47;;
15043;SDS011;7619;48.562;8.910;2023-03-14T07:20:03;1.47;;;0.30;;
15043;SDS011;7619;48.562;8.910;2023-03-14T07:22:34;2.13;;;0.57;;
15043;SDS011;7619;48.562;8.910;2023-03-14T07:25:04;0.47;;;0.47;;
15043;SDS011;7619;48.562;8.910;2023-03-14T07:27:31;1.50;;;0.40;;
15043;SDS011;7619;48.562;8.910;2023-03-14T07:30:00;4.43;;;0.70;;
15043;SDS011;7619;48.562;8.910;2023-03-14T07:32:29;0.30;;;0.30;;
15043;SDS011;7619;48.562;8.910;2023-03-14T07:35:08;0.50;;;0.30;;
15043;SDS011;7619;48.562;8.910;2023-03-14T07:37:37;0.70;;;0.40;;
15043;SDS011;7619;48.562;8.910;2023-03-14T07:40:07;1.13;;;0.40;;
15043;SDS011;7619;48.562;8.910;2023-03-14T07:42:36;2.20;;;0.83;;
15043;SDS011;7619;48.562;8.910;2023-03-14T07:45:07;0.40;;;0.37;;
15043;SDS011;7619;48.562;8.910;2023-03-14T07:47:35;2.00;;;0.50;;
15043;SDS011;7619;48.562;8.910;2023-03-14T07:50:04;0.30;;;0.30;;
15043;SDS011;7619;48.562;8.910;2023-03-14T07:52:32;1.60;;;0.30;;
15043;SDS011;7619;48.562;8.910;2023-03-14T07:55:01;1.10;;;0.30;;
15043;SDS011;7619;48.562;8.910;2023-03-14T07:57:29;1.23;;;0.40;;
15043;SDS011;7619;48.562;8.910;2023-03-14T07:59:58;0.53;;;0.30;;
15043;SDS011;7619;48.562;8.910;2023-03-14T08:02:26;0.70;;;0.40;;
15043;SDS011;7619;48.562;8.910;2023-03-14T08:04:54;0.30;;;0.10;;
15043;SDS011;7619;48.562;8.910;2023-03-14T08:07:22;0.33;;;0.20;;
15043;SDS011;7619;48.562;8.910;2023-03-14T08:09:50;0.47;;;0.20;;
15043;SDS011;7619;48.562;8.910;2023-03-14T08:12:18;0.30;;;0.30;;
15043;SDS011;7619;48.562;8.910;2023-03-14T08:14:46;0.63;;;0.20;;
15043;SDS011;7619;48.562;8.910;2023-03-14T08:17:14;0.53;;;0.33;;
15043;SDS011;7619;48.562;8.910;2023-03-14T08:19:42;2.87;;;0.20;;
15043;SDS011;7619;48.562;8.910;2023-03-14T08:22:10;0.33;;;0.13;;
15043;SDS011;7619;48.562;8.910;2023-03-14T08:24:38;0.30;;;0.30;;
15043;SDS011;7619;48.562;8.910;2023-03-14T08:27:07;0.67;;;0.60;;
15043;SDS011;7619;48.562;8.910;2023-03-14T08:32:12;1.60;;;0.50;;
15043;SDS011;7619;48.562;8.910;2023-03-14T08:34:40;0.57;;;0.23;;
15043;SDS011;7619;48.562;8.910;2023-03-14T08:37:09;0.40;;;0.10;;
15043;SDS011;7619;48.562;8.910;2023-03-14T08:39:37;0.87;;;0.30;;
15043;SDS011;7619;48.562;8.910;2023-03-14T08:42:05;0.00;;;0.00;;
15043;SDS011;7619;48.562;8.910;2023-03-14T08:44:33;0.87;;;0.30;;
15043;SDS011;7619;48.562;8.910;2023-03-14T08:47:01;0.23;;;0.20;;
15043;SDS011;7619;48.562;8.910;2023-03-14T08:49:29;0.27;;;0.27;;
15043;SDS011;7619;48.562;8.910;2023-03-14T08:51:57;1.20;;;0.23;;
15043;SDS011;7619;48.562;8.910;2023-03-14T08:54:25;3.10;;;0.80;;
15043;SDS011;7619;48.562;8.910;2023-03-14T08:56:53;0.40;;;0.23;;
15043;SDS011;7619;48.562;8.910;2023-03-14T08:59:21;0.30;;;0.30;;
15043;SDS011;7619;48.562;8.910;2023-03-14T09:01:49;1.60;;;0.50;;
15043;SDS011;7619;48.562;8.910;2023-03-14T09:04:17;2.80;;;0.60;;
15043;SDS011;7619;48.562;8.910;2023-03-14T09:06:45;1.60;;;0.20;;
15043;SDS011;7619;48.562;8.910;2023-03-14T09:09:13;0.87;;;0.40;;
15043;SDS011;7619;48.562;8.910;2023-03-14T09:11:41;0.60;;;0.60;;
15043;SDS011;7619;48.562;8.910;2023-03-14T09:14:09;0.27;;;0.23;;
15043;SDS011;7619;48.562;8.910;2023-03-14T09:16:36;0.20;;;0.20;;
15043;SDS011;7619;48.562;8.910;2023-03-14T09:19:06;0.20;;;0.07;;
15043;SDS011;7619;48.562;8.910;2023-03-14T09:21:33;0.40;;;0.20;;
15043;SDS011;7619;48.562;8.910;2023-03-14T09:24:02;0.27;;;0.27;;
15043;SDS011;7619;48.562;8.910;2023-03-14T09:26:29;0.20;;;0.20;;
15043;SDS011;7619;48.562;8.910;2023-03-14T09:28:59;0.70;;;0.30;;
15043;SDS011;7619;48.562;8.910;2023-03-14T09:31:27;0.30;;;0.30;;
15043;SDS011;7619;48.562;8.910;2023-03-14T09:33:56;0.63;;;0.30;;
15043;SDS011;7619;48.562;8.910;2023-03-14T09:36:24;0.27;;;0.20;;
15043;SDS011;7619;48.562;8.910;2023-03-14T09:38:52;0.00;;;0.00;;
15043;SDS011;7619;48.562;8.910;2023-03-14T09:41:23;3.03;;;0.50;;
15043;SDS011;7619;48.562;8.910;2023-03-14T09:43:59;0.20;;;0.20;;
15043;SDS011;7619;48.562;8.910;2023-03-14T09:49:00;1.10;;;0.60;;
15043;SDS011;7619;48.562;8.910;2023-03-14T09:51:28;0.43;;;0.30;;
15043;SDS011;7619;48.562;8.910;2023-03-14T09:53:56;0.47;;;0.20;;
15043;SDS011;7619;48.562;8.910;2023-03-14T09:56:27;0.10;;;0.10;;
15043;SDS011;7619;48.562;8.910;2023-03-14T09:58:56;0.47;;;0.20;;
15043;SDS011;7619;48.562;8.910;2023-03-14T10:01:26;0.20;;;0.20;;
15043;SDS011;7619;48.562;8.910;2023-03-14T10:03:57;0.20;;;0.20;;
15043;SDS011;7619;48.562;8.910;2023-03-14T10:06:26;0.40;;;0.17;;
15043;SDS011;7619;48.562;8.910;2023-03-14T10:08:57;0.10;;;0.10;;
15043;SDS011;7619;48.562;8.910;2023-03-14T10:11:26;0.10;;;0.10;;
15043;SDS011;7619;48.562;8.910;2023-03-14T10:14:05;0.13;;;0.13;;
15043;SDS011;7619;48.562;8.910;2023-03-14T10:16:33;0.20;;;0.17;;
15043;SDS011;7619;48.562;8.910;2023-03-14T10:19:02;0.20;;;0.20;;
15043;SDS011;7619;48.562;8.910;2023-03-14T10:21:36;0.13;;;0.10;;
15043;SDS011;7619;48.562;8.910;2023-03-14T10:24:18;0.23;;;0.20;;
15043;SDS011;7619;48.562;8.910;2023-03-14T10:26:48;0.30;;;0.20;;
15043;SDS011;7619;48.562;8.910;2023-03-14T10:29:17;0.93;;;0.27;;
15043;SDS011;7619;48.562;8.910;2023-03-14T10:31:49;0.23;;;0.20;;
15043;SDS011;7619;48.562;8.910;2023-03-14T10:34:22;0.20;;;0.17;;
15043;SDS011;7619;48.562;8.910;2023-03-14T10:36:52;0.70;;;0.30;;
15043;SDS011;7619;48.562;8.910;2023-03-14T10:39:25;0.33;;;0.20;;
15043;SDS011;7619;48.562;8.910;2023-03-14T10:42:03;0.27;;;0.27;;
15043;SDS011;7619;48.562;8.910;2023-03-14T10:44:34;0.20;;;0.20;;
15043;SDS011;7619;48.562;8.910;2023-03-14T10:47:05;0.37;;;0.10;;
15043;SDS011;7619;48.562;8.910;2023-03-14T10:49:34;0.87;;;0.27;;
15043;SDS011;7619;48.562;8.910;2023-03-14T10:52:12;0.53;;;0.10;;
15043;SDS011;7619;48.562;8.910;2023-03-14T10:54:40;0.50;;;0.30;;
15043;SDS011;7619;48.562;8.910;2023-03-14T10:57:10;0.47;;;0.17;;
15043;SDS011;7619;48.562;8.910;2023-03-14T10:59:41;0.20;;;0.20;;
15043;SDS011;7619;48.562;8.910;2023-03-14T11:02:15;0.10;;;0.10;;
15043;SDS011;7619;48.562;8.910;2023-03-14T11:04:47;0.30;;;0.30;;
15043;SDS011;7619;48.562;8.910;2023-03-14T11:07:22;0.63;;;0.20;;
15043;SDS011;7619;48.562;8.910;2023-03-14T11:09:54;0.13;;;0.13;;
15043;SDS011;7619;48.562;8.910;2023-03-14T11:12:32;0.20;;;0.10;;
15043;SDS011;7619;48.562;8.910;2023-03-14T11:15:09;0.17;;;0.17;;
15043;SDS011;7619;48.562;8.910;2023-03-14T11:17:37;0.63;;;0.40;;
15043;SDS011;7619;48.562;8.910;2023-03-14T11:20:08;0.20;;;0.10;;
15043;SDS011;7619;48.562;8.910;2023-03-14T11:22:46;0.73;;;0.20;;
15043;SDS011;7619;48.562;8.910;2023-03-14T11:25:20;0.20;;;0.20;;
15043;SDS011;7619;48.562;8.910;2023-03-14T11:27:49;0.53;;;0.47;;
15043;SDS011;7619;48.562;8.910;2023-03-14T11:30:19;0.50;;;0.50;;
15043;SDS011;7619;48.562;8.910;2023-03-14T11:32:50;0.20;;;0.20;;
15043;SDS011;7619;48.562;8.910;2023-03-14T11:35:22;0.03;;;0.03;;
15043;SDS011;7619;48.562;8.910;2023-03-14T11:37:53;0.23;;;0.23;;
15043;SDS011;7619;48.562;8.910;2023-03-14T11:40:29;0.10;;;0.10;;
15043;SDS011;7619;48.562;8.910;2023-03-14T11:43:04;0.10;;;0.10;;
15043;SDS011;7619;48.562;8.910;2023-03-14T11:45:30;1.07;;;0.43;;
15043;SDS011;7619;48.562;8.910;2023-03-14T11:48:13;0.30;;;0.30;;
15043;SDS011;7619;48.562;8.910;2023-03-14T11:50:41;0.47;;;0.47;;
15043;SDS011;7619;48.562;8.910;2023-03-14T11:53:13;0.53;;;0.30;;
15043;SDS011;7619;48.562;8.910;2023-03-14T11:55:44;0.23;;;0.23;;
15043;SDS011;7619;48.562;8.910;2023-03-14T11:58:14;0.37;;;0.37;;
15043;SDS011;7619;48.562;8.910;2023-03-14T12:00:54;4.07;;;0.60;;
15043;SDS011;7619;48.562;8.910;2023-03-14T12:03:25;0.47;;;0.27;;
15043;SDS011;7619;48.562;8.910;2023-03-14T12:05:55;0.10;;;0.10;;
15043;SDS011;7619;48.562;8.910;2023-03-14T12:11:33;0.37;;;0.23;;
15043;SDS011;7619;48.562;8.910;2023-03-14T12:14:17;0.20;;;0.20;;
15043;SDS011;7619;48.562;8.910;2023-03-14T12:16:49;0.20;;;0.20;;
15043;SDS011;7619;48.562;8.910;2023-03-14T12:22:07;0.20;;;0.20;;
15043;SDS011;7619;48.562;8.910;2023-03-14T12:24:36;0.47;;;0.27;;
15043;SDS011;7619;48.562;8.910;2023-03-14T12:27:10;0.57;;;0.20;;
15043;SDS011;7619;48.562;8.910;2023-03-14T12:29:57;0.30;;;0.30;;
15043;SDS011;7619;48.562;8.910;2023-03-14T12:32:25;1.00;;;0.60;;
15043;SDS011;7619;48.562;8.910;2023-03-14T12:34:55;1.33;;;1.03;;
15043;SDS011;7619;48.562;8.910;2023-03-14T12:37:25;0.47;;;0.47;;
15043;SDS011;7619;48.562;8.910;2023-03-14T12:40:00;0.20;;;0.20;;
15043;SDS011;7619;48.562;8.910;2023-03-14T12:45:22;0.20;;;0.20;;
15043;SDS011;7619;48.562;8.910;2023-03-14T12:47:55;0.40;;;0.10;;
15043;SDS011;7619;48.562;8.910;2023-03-14T12:50:43;0.30;;;0.30;;
15043;SDS011;7619;48.562;8.910;2023-03-14T12:56:42;0.37;;;0.20;;
15043;SDS011;7619;48.562;8.910;2023-03-14T12:59:17;1.10;;;0.63;;
15043;SDS011;7619;48.562;8.910;2023-03-14T13:01:47;0.40;;;0.40;;
15043;SDS011;7619;48.562;8.910;2023-03-14T13:04:15;0.07;;;0.07;;
15043;SDS011;7619;48.562;8.910;2023-03-14T13:06:48;1.60;;;0.57;;
15043;SDS011;7619;48.562;8.910;2023-03-14T13:09:48;0.67;;;0.40;;
15043;SDS011;7619;48.562;8.910;2023-03-14T13:12:13;2.97;;;0.50;;
15043;SDS011;7619;48.562;8.910;2023-03-14T13:14:51;1.67;;;0.50;;
15043;SDS011;7619;48.562;8.910;2023-03-14T13:17:23;0.67;;;0.30;;
15043;SDS011;7619;48.562;8.910;2023-03-14T13:19:55;0.73;;;0.47;;
15043;SDS011;7619;48.562;8.910;2023-03-14T13:22:27;0.50;;;0.43;;
15043;SDS011;7619;48.562;8.910;2023-03-14T13:25:00;0.43;;;0.30;;
15043;SDS011;7619;48.562;8.910;2023-03-14T13:27:33;2.80;;;0.43;;
15043;SDS011;7619;48.562;8.910;2023-03-14T13:30:19;0.67;;;0.40;;
15043;SDS011;7619;48.562;8.910;2023-03-14T13:32:48;2.43;;;0.70;;
15043;SDS011;7619;48.562;8.910;2023-03-14T13:35:20;0.60;;;0.50;;
15043;SDS011;7619;48.562;8.910;2023-03-14T13:37:53;0.53;;;0.40;;
15043;SDS011;7619;48.562;8.910;2023-03-14T13:40:25;0.50;;;0.50;;
15043;SDS011;7619;48.562;8.910;2023-03-14T13:43:00;2.47;;;0.60;;
15043;SDS011;7619;48.562;8.910;2023-03-14T13:45:42;0.73;;;0.50;;
15043;SDS011;7619;48.562;8.910;2023-03-14T13:48:21;1.63;;;1.47;;
15043;SDS011;7619;48.562;8.910;2023-03-14T13:50:51;0.37;;;0.37;;
15043;SDS011;7619;48.562;8.910;2023-03-14T13:53:20;1.47;;;0.80;;
15043;SDS011;7619;48.562;8.910;2023-03-14T13:55:50;0.70;;;0.63;;
15043;SDS011;7619;48.562;8.910;2023-03-14T13:58:25;2.30;;;0.60;;
15043;SDS011;7619;48.562;8.910;2023-03-14T14:01:03;1.67;;;0.70;;
15043;SDS011;7619;48.562;8.910;2023-03-14T14:03:33;1.50;;;0.53;;
15043;SDS011;7619;48.562;8.910;2023-03-14T14:06:01;0.53;;;0.53;;
15043;SDS011;7619;48.562;8.910;2023-03-14T14:08:31;0.30;;;0.30;;
15043;SDS011;7619;48.562;8.910;2023-03-14T14:11:01;2.40;;;0.70;;
15043;SDS011;7619;48.562;8.910;2023-03-14T14:13:32;1.37;;;0.80;;
15043;SDS011;7619;48.562;8.910;2023-03-14T14:16:02;1.33;;;1.00;;
15043;SDS011;7619;48.562;8.910;2023-03-14T14:18:33;2.47;;;0.70;;
15043;SDS011;7619;48.562;8.910;2023-03-14T14:21:01;3.87;;;0.77;;
15043;SDS011;7619;48.562;8.910;2023-03-14T14:23:31;1.87;;;0.80;;
15043;SDS011;7619;48.562;8.910;2023-03-14T14:26:01;0.47;;;0.30;;
15043;SDS011;7619;48.562;8.910;2023-03-14T14:28:32;2.40;;;0.93;;
15043;SDS011;7619;48.562;8.910;2023-03-14T14:31:04;6.73;;;2.47;;
15043;SDS011;7619;48.562;8.910;2023-03-14T14:33:39;6.73;;;4.70;;
15043;SDS011;7619;48.562;8.910;2023-03-14T14:36:14;4.17;;;2.33;;
15043;SDS011;7619;48.562;8.910;2023-03-14T14:38:51;2.30;;;1.17;;
15043;SDS011;7619;48.562;8.910;2023-03-14T14:41:19;1.60;;;0.90;;
15043;SDS011;7619;48.562;8.910;2023-03-14T14:43:49;0.50;;;0.50;;
15043;SDS011;7619;48.562;8.910;2023-03-14T14:46:19;1.57;;;0.70;;
15043;SDS011;7619;48.562;8.910;2023-03-14T14:48:47;1.33;;;0.93;;
15043;SDS011;7619;48.562;8.910;2023-03-14T14:51:25;1.20;;;0.50;;
15043;SDS011;7619;48.562;8.910;2023-03-14T14:54:10;0.40;;;0.40;;
15043;SDS011;7619;48.562;8.910;2023-03-14T14:56:44;2.33;;;0.60;;
15043;SDS011;7619;48.562;8.910;2023-03-14T14:59:23;1.20;;;0.73;;
15043;SDS011;7619;48.562;8.910;2023-03-14T15:01:55;2.47;;;0.70;;
15043;SDS011;7619;48.562;8.910;2023-03-14T15:04:25;2.50;;;0.77;;
15043;SDS011;7619;48.562;8.910;2023-03-14T15:06:54;1.10;;;0.60;;
15043;SDS011;7619;48.562;8.910;2023-03-14T15:09:21;1.40;;;0.60;;
15043;SDS011;7619;48.562;8.910;2023-03-14T15:11:51;0.20;;;0.20;;
15043;SDS011;7619;48.562;8.910;2023-03-14T15:14:20;3.57;;;1.40;;
15043;SDS011;7619;48.562;8.910;2023-03-14T15:16:49;0.67;;;0.50;;
15043;SDS011;7619;48.562;8.910;2023-03-14T15:19:20;1.30;;;1.20;;
15043;SDS011;7619;48.562;8.910;2023-03-14T15:21:47;2.10;;;1.43;;
15043;SDS011;7619;48.562;8.910;2023-03-14T15:24:17;5.03;;;1.70;;
15043;SDS011;7619;48.562;8.910;2023-03-14T15:26:44;1.57;;;1.00;;
15043;SDS011;7619;48.562;8.910;2023-03-14T15:29:13;1.10;;;0.70;;
15043;SDS011;7619;48.562;8.910;2023-03-14T15:31:43;3.27;;;0.97;;
15043;SDS011;7619;48.562;8.910;2023-03-14T15:34:12;2.77;;;1.27;;